Time;durP1;ratioP1;P1;durP2;ratioP2;P2;SDS_P1;SDS_P2;PMS_P1;PMS_P2;Temp;Humidity;BMP_temperature;BMP_pressure;BME280_temperature;BME280_humidity;BME280_pressure;Samples;Min_cycle;Max_cycle;Signal;HPM_P1;HPM_P2
2023/06/14 00:00:03;;;;;;;12.13;9.00;;;;;;;18.01;100.00;94359.03;5089939;28;20186;-43
2023/06/14 00:02:32;;;;;;;11.33;9.00;;;;;;;17.98;100.00;94370.56;5089039;28;20229;-46
2023/06/14 00:04:59;;;;;;;12.17;9.83;;;;;;;17.97;100.00;94365.56;5090332;28;20182;-45
2023/06/14 00:07:35;;;;;;;10.20;8.27;;;;;;;17.98;100.00;94355.03;5090231;28;20208;-45
2023/06/14 00:10:02;;;;;;;10.47;8.63;;;;;;;17.95;100.00;94341.66;5089674;28;20189;-44
2023/06/14 00:12:29;;;;;;;12.20;8.17;;;;;;;17.94;100.00;94360.78;5089318;28;20197;-44
2023/06/14 00:14:56;;;;;;;10.43;8.00;;;;;;;17.93;100.00;94354.00;5089510;28;20657;-44
2023/06/14 00:17:23;;;;;;;9.67;8.63;;;;;;;17.93;100.00;94362.56;5088604;28;20635;-47
2023/06/14 00:19:52;;;;;;;13.37;8.07;;;;;;;17.92;100.00;94355.81;5089824;28;20276;-45
2023/06/14 00:22:19;;;;;;;14.03;8.27;;;;;;;17.91;100.00;94346.41;5088946;28;20224;-46
2023/06/14 00:24:46;;;;;;;11.17;8.23;;;;;;;17.94;100.00;94348.63;5089383;28;20194;-45
2023/06/14 00:27:13;;;;;;;10.30;8.60;;;;;;;17.93;100.00;94347.03;5088943;28;20243;-46
2023/06/14 00:29:40;;;;;;;8.83;7.93;;;;;;;17.95;100.00;94347.63;5089422;28;20190;-41
2023/06/14 00:32:07;;;;;;;8.77;7.87;;;;;;;17.97;100.00;94347.47;5089043;28;20215;-44
2023/06/14 00:34:34;;;;;;;10.27;7.47;;;;;;;17.84;100.00;94326.69;5091527;28;20205;-45
2023/06/14 00:37:02;;;;;;;8.63;7.73;;;;;;;17.95;100.00;94344.25;5092693;28;20186;-45
2023/06/14 00:39:29;;;;;;;8.03;7.20;;;;;;;17.94;100.00;94350.44;5093218;28;20659;-44
2023/06/14 00:41:56;;;;;;;9.20;7.80;;;;;;;17.91;100.00;94341.25;5092929;28;20210;-48
2023/06/14 00:44:23;;;;;;;12.87;7.53;;;;;;;17.89;100.00;94335.47;5093028;28;20254;-50
2023/06/14 00:46:51;;;;;;;7.73;6.93;;;;;;;17.90;100.00;94337.06;5093062;28;20193;-46
2023/06/14 00:49:19;;;;;;;7.83;6.63;;;;;;;17.94;100.00;94340.06;5093268;28;20261;-45
2023/06/14 00:51:46;;;;;;;7.57;6.77;;;;;;;17.94;100.00;94334.91;5092689;28;20694;-43
2023/06/14 00:54:14;;;;;;;14.00;7.73;;;;;;;17.91;100.00;94336.06;5092798;28;20225;-44
2023/06/14 00:56:42;;;;;;;7.00;6.27;;;;;;;17.91;100.00;94335.28;5093031;28;20602;-47
2023/06/14 00:59:10;;;;;;;7.90;7.20;;;;;;;17.92;100.00;94329.94;5092895;28;20197;-45
2023/06/14 01:01:38;;;;;;;9.50;7.07;;;;;;;17.89;100.00;94327.72;5093120;28;20217;-45
2023/06/14 01:04:05;;;;;;;6.50;5.60;;;;;;;17.93;100.00;94334.09;5092723;28;20201;-44
2023/06/14 01:06:40;;;;;;;7.23;6.50;;;;;;;17.94;100.00;94330.53;5078263;28;20649;-47
2023/06/14 01:09:25;;;;;;;6.20;5.70;;;;;;;17.91;100.00;94322.34;5092814;28;20193;-45
2023/06/14 01:12:06;;;;;;;6.23;5.63;;;;;;;17.96;100.00;94336.31;5092746;28;20194;-45
2023/06/14 01:14:35;;;;;;;6.40;5.80;;;;;;;17.95;100.00;94331.31;5093138;28;20262;-48
2023/06/14 01:17:03;;;;;;;6.67;5.97;;;;;;;17.92;100.00;94334.28;5093192;28;20225;-47
2023/06/14 01:19:31;;;;;;;8.27;6.80;;;;;;;17.92;100.00;94335.09;5093854;28;20270;-46
2023/06/14 01:22:00;;;;;;;7.30;6.40;;;;;;;17.94;100.00;94332.31;5093292;28;20217;-47
2023/06/14 01:24:31;;;;;;;8.63;7.27;;;;;;;17.98;100.00;94330.94;5093103;28;20193;-44
2023/06/14 01:27:00;;;;;;;9.67;8.43;;;;;;;17.97;100.00;94324.97;5093222;28;20194;-46
2023/06/14 01:29:32;;;;;;;10.47;9.30;;;;;;;17.97;100.00;94334.53;5093158;28;20178;-46
2023/06/14 01:31:59;;;;;;;9.70;8.37;;;;;;;17.95;100.00;94336.50;5093757;28;20209;-45
2023/06/14 01:34:26;;;;;;;11.40;7.57;;;;;;;17.93;100.00;94325.56;5093004;28;20209;-47
2023/06/14 01:36:55;;;;;;;7.10;6.30;;;;;;;17.88;100.00;94322.75;5093043;28;20190;-46
2023/06/14 01:39:23;;;;;;;7.63;6.87;;;;;;;17.82;100.00;94316.53;5093051;28;20206;-47
2023/06/14 01:41:53;;;;;;;6.43;5.83;;;;;;;17.86;100.00;94329.88;5093000;28;20225;-45
2023/06/14 01:44:21;;;;;;;7.60;6.40;;;;;;;17.89;100.00;94335.47;5092343;28;20194;-45
2023/06/14 01:46:48;;;;;;;7.20;5.63;;;;;;;17.90;100.00;94337.06;5092299;28;20239;-46
2023/06/14 01:49:15;;;;;;;5.50;5.00;;;;;;;17.92;100.00;94331.69;5091680;28;20193;-45
2023/06/14 01:51:41;;;;;;;5.27;4.87;;;;;;;17.90;100.00;94326.72;5091845;28;20192;-44
2023/06/14 01:54:08;;;;;;;4.80;4.40;;;;;;;17.88;100.00;94331.31;5091945;28;20204;-44
2023/06/14 01:56:35;;;;;;;5.40;4.90;;;;;;;17.87;100.00;94340.03;5092057;28;20259;-46
2023/06/14 01:59:03;;;;;;;5.13;4.63;;;;;;;17.85;100.00;94343.81;5091728;28;20197;-44
2023/06/14 02:01:30;;;;;;;6.23;5.63;;;;;;;17.80;100.00;94339.22;5091876;28;20297;-45
2023/06/14 02:03:57;;;;;;;6.70;5.63;;;;;;;17.79;100.00;94343.59;5091573;28;20625;-44
2023/06/14 02:06:27;;;;;;;5.03;4.63;;;;;;;17.88;100.00;94349.41;5090917;28;20263;-45
2023/06/14 02:08:54;;;;;;;7.27;4.97;;;;;;;17.86;100.00;94351.38;5091767;28;20201;-43
2023/06/14 02:11:20;;;;;;;7.80;5.83;;;;;;;17.65;100.00;94323.75;5091334;28;20196;-44
2023/06/14 02:13:47;;;;;;;6.00;5.50;;;;;;;17.85;100.00;94356.75;5091330;28;20194;-44
2023/06/14 02:16:17;;;;;;;8.43;6.00;;;;;;;17.75;100.00;94357.91;5090753;28;20646;-45
2023/06/14 02:18:43;;;;;;;6.33;5.30;;;;;;;17.79;100.00;94359.13;5091554;28;20621;-43
2023/06/14 02:21:10;;;;;;;5.60;5.10;;;;;;;17.77;100.00;94362.88;5090726;28;20201;-44
2023/06/14 02:23:37;;;;;;;5.70;5.10;;;;;;;17.74;100.00;94368.41;5091429;28;20557;-44
2023/06/14 02:26:04;;;;;;;9.20;5.50;;;;;;;17.71;100.00;94366.19;5090960;28;20185;-45
2023/06/14 02:28:31;;;;;;;5.83;5.33;;;;;;;17.74;100.00;94366.63;5090871;28;20194;-47
2023/06/14 02:30:57;;;;;;;6.10;5.40;;;;;;;17.73;100.00;94364.19;5090995;28;20608;-44
2023/06/14 02:33:25;;;;;;;6.40;5.80;;;;;;;17.72;100.00;94367.78;5091195;28;20174;-44
2023/06/14 02:35:52;;;;;;;6.40;5.20;;;;;;;17.72;100.00;94370.38;5090349;28;20553;-46
2023/06/14 02:38:19;;;;;;;6.53;5.20;;;;;;;17.67;100.00;94370.94;5091548;28;20321;-45
2023/06/14 02:40:46;;;;;;;5.27;4.80;;;;;;;17.68;100.00;94371.72;5091026;28;20276;-46
2023/06/14 02:43:13;;;;;;;7.30;5.23;;;;;;;17.69;100.00;94371.53;5090579;28;20232;-46
2023/06/14 02:45:40;;;;;;;5.37;4.87;;;;;;;17.67;100.00;94365.75;5090800;28;20243;-44
2023/06/14 02:48:07;;;;;;;5.50;5.10;;;;;;;17.43;100.00;94332.56;5090360;28;20238;-45
2023/06/14 02:50:35;;;;;;;5.73;5.17;;;;;;;17.67;100.00;94363.19;5090678;28;20334;-45
2023/06/14 02:53:02;;;;;;;5.60;5.10;;;;;;;17.68;100.00;94362.19;5090540;28;20622;-45
2023/06/14 02:55:29;;;;;;;7.57;4.80;;;;;;;17.61;100.00;94363.91;5090727;28;20618;-45
2023/06/14 02:57:56;;;;;;;5.50;5.07;;;;;;;17.61;100.00;94363.13;5090333;28;20189;-45
2023/06/14 03:00:23;;;;;;;5.77;5.27;;;;;;;17.61;100.00;94370.88;5090701;28;20197;-45
2023/06/14 03:02:51;;;;;;;5.93;5.43;;;;;;;17.65;100.00;94369.50;5090321;28;20649;-44
2023/06/14 03:05:21;;;;;;;7.97;4.77;;;;;;;17.65;100.00;94369.50;5090429;28;20201;-44
2023/06/14 03:07:50;;;;;;;5.40;5.00;;;;;;;17.62;100.00;94373.28;5090319;28;20231;-45
2023/06/14 03:10:17;;;;;;;8.23;5.30;;;;;;;17.59;100.00;94380.63;5090366;28;20178;-45
2023/06/14 03:12:44;;;;;;;5.63;5.13;;;;;;;17.53;100.00;94371.84;5089977;28;20670;-46
2023/06/14 03:15:12;;;;;;;5.53;5.03;;;;;;;17.56;100.00;94381.78;5090457;28;20987;-46
2023/06/14 03:17:40;;;;;;;5.03;4.63;;;;;;;17.51;100.00;94381.56;5089898;28;20320;-45
2023/06/14 03:20:09;;;;;;;5.53;4.63;;;;;;;17.51;100.00;94378.97;5090332;28;20190;-45
2023/06/14 03:22:36;;;;;;;7.03;4.60;;;;;;;17.51;100.00;94378.97;5090083;28;20232;-45
2023/06/14 03:25:05;;;;;;;5.97;5.47;;;;;;;17.51;100.00;94386.72;5090444;28;20671;-46
2023/06/14 03:27:32;;;;;;;6.00;5.30;;;;;;;17.02;100.00;94300.47;5090595;28;20239;-43
2023/06/14 03:29:58;;;;;;;5.93;5.43;;;;;;;17.58;100.00;94390.16;5090179;28;20197;-46
2023/06/14 03:32:25;;;;;;;5.27;4.83;;;;;;;17.58;100.00;94392.75;5090526;28;20186;-46
2023/06/14 03:34:52;;;;;;;6.60;5.40;;;;;;;17.62;100.00;94393.97;5089951;28;20190;-45
2023/06/14 03:37:19;;;;;;;8.00;5.83;;;;;;;17.64;100.00;94397.16;5090412;28;20178;-47
2023/06/14 03:39:47;;;;;;;5.63;5.17;;;;;;;17.66;100.00;94399.56;5089916;28;20200;-47
2023/06/14 03:42:15;;;;;;;5.80;5.30;;;;;;;17.70;100.00;94395.59;5089655;28;20223;-45
2023/06/14 03:44:42;;;;;;;6.87;5.83;;;;;;;17.72;100.00;94394.44;5089475;28;20190;-46
2023/06/14 03:47:09;;;;;;;5.93;5.43;;;;;;;17.75;100.00;94398.47;5090120;28;20182;-47
2023/06/14 03:49:37;;;;;;;5.83;5.33;;;;;;;17.78;100.00;94398.09;5089415;28;20193;-47
2023/06/14 03:52:05;;;;;;;11.43;5.60;;;;;;;17.74;100.00;94386.50;5089796;28;20231;-46
2023/06/14 03:54:32;;;;;;;5.37;4.97;;;;;;;17.80;100.00;94393.53;5089445;28;20193;-45
2023/06/14 03:56:59;;;;;;;5.53;5.10;;;;;;;17.84;100.00;94393.97;5089807;28;20579;-42
2023/06/14 03:59:27;;;;;;;5.40;4.90;;;;;;;17.88;100.00;94398.56;5089327;28;20212;-43
2023/06/14 04:01:55;;;;;;;6.87;4.60;;;;;;;17.87;100.00;94402.13;5089920;28;20178;-45
2023/06/14 04:04:28;;;;;;;5.93;5.33;;;;;;;17.88;100.00;94403.75;5089914;28;20177;-48
2023/06/14 04:06:56;;;;;;;5.77;5.00;;;;;;;17.84;100.00;94405.09;5090401;28;20213;-47
2023/06/14 04:09:24;;;;;;;6.07;5.37;;;;;;;17.82;100.00;94399.31;5089131;28;20269;-46
2023/06/14 04:11:51;;;;;;;6.57;5.90;;;;;;;17.82;100.00;94399.31;5089358;28;20185;-45
2023/06/14 04:14:18;;;;;;;7.80;4.70;;;;;;;17.86;100.00;94395.34;5089378;28;20194;-44
2023/06/14 04:16:47;;;;;;;7.10;5.50;;;;;;;18.05;100.00;94393.88;5088879;28;20221;-46
2023/06/14 04:19:14;;;;;;;9.03;5.57;;;;;;;18.27;100.00;94397.97;5089860;28;20178;-46
2023/06/14 04:21:41;;;;;;;6.47;5.87;;;;;;;18.38;100.00;94393.22;5089323;28;20649;-44
2023/06/14 04:24:12;;;;;;;8.77;6.10;;;;;;;18.53;100.00;94391.31;5089319;28;20206;-44
2023/06/14 04:26:40;;;;;;;6.77;6.17;;;;;;;18.72;100.00;94394.97;5087372;28;20238;-45
2023/06/14 04:29:06;;;;;;;7.13;6.43;;;;;;;18.87;100.00;94402.59;5089030;28;20543;-44
2023/06/14 04:31:34;;;;;;;8.17;7.13;;;;;;;18.93;100.00;94387.06;5088874;28;20194;-42
2023/06/14 04:34:05;;;;;;;8.43;6.30;;;;;;;19.17;99.96;94380.53;5089131;28;20222;-46
2023/06/14 04:36:34;;;;;;;7.57;6.87;;;;;;;19.57;98.17;94400.50;5089007;28;20178;-46
2023/06/14 04:39:03;;;;;;;6.60;6.00;;;;;;;19.68;97.74;94405.88;5089280;28;20197;-45
2023/06/14 04:41:30;;;;;;;6.90;6.20;;;;;;;19.71;97.58;94396.91;5088539;28;20615;-45
2023/06/14 04:43:58;;;;;;;7.57;6.88;;;;;;;19.76;97.48;94397.09;5088789;28;20291;-44
2023/06/14 04:46:25;;;;;;;7.50;6.40;;;;;;;19.96;95.97;94395.28;5088778;28;20288;-45
2023/06/14 04:48:52;;;;;;;7.72;7.03;;;;;;;20.09;94.66;94397.06;5089274;28;20281;-44
2023/06/14 04:51:22;;;;;;;8.13;6.90;;;;;;;20.11;94.10;94404.63;5089024;28;20190;-46
2023/06/14 04:53:49;;;;;;;7.78;6.97;;;;;;;20.15;93.71;94400.63;5089675;28;20323;-45
2023/06/14 04:56:16;;;;;;;10.05;7.00;;;;;;;20.02;93.94;94378.88;5089001;28;20189;-44
2023/06/14 04:58:44;;;;;;;8.18;7.43;;;;;;;20.36;91.82;94409.97;5087994;28;20200;-43
2023/06/14 05:01:11;;;;;;;7.70;6.78;;;;;;;20.41;90.85;94413.53;5088948;28;20201;-44
2023/06/14 05:03:37;;;;;;;6.95;6.25;;;;;;;20.50;89.90;94420.13;5088774;28;20221;-45
2023/06/14 05:06:04;;;;;;;7.28;6.57;;;;;;;20.64;88.95;94412.28;5088956;28;20204;-47
2023/06/14 05:08:32;;;;;;;7.00;6.35;;;;;;;20.83;90.14;94414.00;5088605;28;20190;-44
2023/06/14 05:10:59;;;;;;;10.45;7.53;;;;;;;20.97;88.67;94427.72;5089000;28;20573;-46
2023/06/14 05:13:27;;;;;;;7.35;6.53;;;;;;;21.02;88.47;94426.09;5088809;28;20189;-43
2023/06/14 05:15:54;;;;;;;9.55;7.30;;;;;;;21.18;86.89;94424.81;5089221;28;20189;-45
2023/06/14 05:18:21;;;;;;;7.97;7.25;;;;;;;21.25;85.39;94424.78;5088618;28;20537;-43
2023/06/14 05:20:48;;;;;;;8.30;7.50;;;;;;;21.30;85.98;94430.94;5090879;28;20676;-44
2023/06/14 05:23:14;;;;;;;9.15;7.97;;;;;;;21.35;86.07;94437.34;5092027;28;20248;-43
2023/06/14 05:25:45;;;;;;;7.72;7.03;;;;;;;21.40;85.44;94435.69;5092421;28;20190;-43
2023/06/14 05:28:12;;;;;;;9.50;7.55;;;;;;;21.42;85.52;94444.09;5092024;28;20216;-44
2023/06/14 05:30:39;;;;;;;8.77;7.97;;;;;;;21.47;85.20;94441.66;5092297;28;20201;-44
2023/06/14 05:33:06;;;;;;;12.05;8.25;;;;;;;21.36;84.15;94449.34;5092131;28;20208;-44
2023/06/14 05:35:33;;;;;;;11.38;7.88;;;;;;;21.31;83.73;94444.72;5091735;28;20669;-44
2023/06/14 05:38:00;;;;;;;8.90;7.55;;;;;;;21.51;84.44;94455.84;5092104;28;20193;-45
2023/06/14 05:40:29;;;;;;;9.00;8.10;;;;;;;21.75;83.00;94436.03;5092069;28;20702;-44
2023/06/14 05:42:57;;;;;;;8.30;7.55;;;;;;;21.99;81.38;94450.06;5092054;28;20225;-45
2023/06/14 05:45:24;;;;;;;9.98;7.28;;;;;;;22.20;81.16;94456.72;5091651;28;20193;-45
2023/06/14 05:47:51;;;;;;;9.38;8.48;;;;;;;22.39;80.11;94462.72;5091787;28;20182;-43
2023/06/14 05:50:18;;;;;;;12.68;8.48;;;;;;;22.69;79.21;94459.41;5091682;28;20185;-44
2023/06/14 05:52:44;;;;;;;9.32;8.23;;;;;;;22.91;77.46;94459.75;5091876;28;20508;-48
2023/06/14 05:55:11;;;;;;;12.43;9.18;;;;;;;22.69;77.81;94462.00;5091679;28;20182;-45
2023/06/14 05:57:38;;;;;;;9.20;8.27;;;;;;;22.28;79.12;94437.41;5091886;28;20259;-43
2023/06/14 06:00:11;;;;;;;10.70;9.60;;;;;;;22.25;79.44;94461.28;5091646;28;20193;-46
2023/06/14 06:02:37;;;;;;;9.07;8.07;;;;;;;22.10;80.28;94452.94;5075247;28;20202;-43
2023/06/14 06:05:05;;;;;;;10.05;8.45;;;;;;;22.11;81.29;94467.59;5068734;28;20685;-44
2023/06/14 06:07:32;;;;;;;10.55;8.73;;;;;;;22.07;80.31;94462.00;5068859;28;20652;-44
2023/06/14 06:09:59;;;;;;;11.32;8.32;;;;;;;21.84;82.30;94470.41;5068698;28;20202;-44
2023/06/14 06:12:26;;;;;;;9.75;8.73;;;;;;;21.73;82.70;94458.88;5068692;28;20197;-43
2023/06/14 06:14:53;;;;;;;8.32;7.53;;;;;;;21.65;83.23;94469.56;5068576;28;20628;-45
2023/06/14 06:17:21;;;;;;;9.02;7.93;;;;;;;21.51;84.18;94462.84;5068559;28;20320;-45
2023/06/14 06:19:48;;;;;;;8.57;7.72;;;;;;;21.46;84.40;94467.88;5068931;28;20221;-47
2023/06/14 06:22:15;;;;;;;9.98;6.68;;;;;;;21.37;85.60;94467.31;5068616;28;20592;-44
2023/06/14 06:24:41;;;;;;;7.93;7.13;;;;;;;21.23;86.69;94476.19;5068493;28;20639;-45
2023/06/14 06:27:09;;;;;;;7.32;6.63;;;;;;;20.70;86.58;94408.88;5074706;28;20185;-46
2023/06/14 06:29:36;;;;;;;7.55;6.80;;;;;;;21.04;86.84;94472.69;5088502;28;20186;-45
2023/06/14 06:32:03;;;;;;;10.48;7.43;;;;;;;20.83;87.50;94450.38;5087643;28;20201;-45
2023/06/14 06:34:31;;;;;;;10.27;8.13;;;;;;;20.91;87.65;94470.94;5088741;28;20716;-43
2023/06/14 06:36:58;;;;;;;10.32;7.03;;;;;;;20.99;88.02;94472.53;5088534;28;20258;-45
2023/06/14 06:39:25;;;;;;;9.27;8.25;;;;;;;20.97;88.10;94474.53;5088774;28;20182;-44
2023/06/14 06:41:52;;;;;;;9.75;8.43;;;;;;;20.97;88.10;94475.31;5088649;28;20189;-45
2023/06/14 06:44:18;;;;;;;11.60;8.90;;;;;;;21.08;87.34;94473.88;5088797;28;20217;-45
2023/06/14 06:46:45;;;;;;;10.65;9.02;;;;;;;21.20;86.86;94469.63;5088414;28;20182;-46
2023/06/14 06:49:12;;;;;;;9.35;8.20;;;;;;;21.25;86.96;94461.19;5088035;28;20194;-44
2023/06/14 06:51:43;;;;;;;10.45;8.18;;;;;;;21.59;87.20;94472.19;5088478;28;20194;-44
2023/06/14 06:54:10;;;;;;;9.60;8.50;;;;;;;22.31;83.27;94478.63;5087599;28;20280;-45
2023/06/14 06:56:37;;;;;;;11.35;8.95;;;;;;;22.70;79.96;94481.84;5088174;28;20273;-44
2023/06/14 06:59:04;;;;;;;10.48;9.23;;;;;;;22.99;79.31;94480.34;5087557;28;20198;-43
2023/06/14 07:01:33;;;;;;;11.65;9.60;;;;;;;23.17;77.50;94482.09;5088028;28;20182;-46
2023/06/14 07:04:00;;;;;;;9.95;8.82;;;;;;;23.29;76.82;94473.31;5086855;28;20229;-45
2023/06/14 07:06:27;;;;;;;12.45;9.45;;;;;;;23.37;76.67;94477.44;5090226;28;20230;-44
2023/06/14 07:09:01;;;;;;;12.40;9.20;;;;;;;23.61;74.53;94477.47;5090171;28;20551;-45
2023/06/14 07:11:27;;;;;;;11.60;9.70;;;;;;;23.68;72.82;94473.78;5090752;28;20557;-46
2023/06/14 07:13:54;;;;;;;9.95;8.82;;;;;;;23.72;71.71;94482.78;5090340;28;20201;-46
2023/06/14 07:16:21;;;;;;;11.18;9.45;;;;;;;23.77;73.00;94479.47;5090608;28;20283;-44
2023/06/14 07:18:48;;;;;;;13.07;10.02;;;;;;;23.77;72.53;94477.66;5090044;28;20190;-46
2023/06/14 07:21:15;;;;;;;10.02;9.00;;;;;;;23.86;73.66;94470.28;5090224;28;20617;-43
2023/06/14 07:23:42;;;;;;;9.27;8.38;;;;;;;24.11;72.18;94475.31;5089824;28;20229;-47
2023/06/14 07:26:10;;;;;;;9.80;8.82;;;;;;;24.31;71.17;94467.16;5090352;28;20186;-45
2023/06/14 07:28:37;;;;;;;11.98;7.80;;;;;;;24.36;70.19;94477.72;5089848;28;20665;-47
2023/06/14 07:31:03;;;;;;;9.68;8.40;;;;;;;24.30;69.75;94483.84;5090647;28;20182;-47
2023/06/14 07:33:30;;;;;;;9.25;7.95;;;;;;;24.23;69.71;94475.34;5090435;28;20197;-47
2023/06/14 07:35:57;;;;;;;8.60;7.20;;;;;;;24.18;70.23;94475.19;5090695;28;20185;-47
2023/06/14 07:38:24;;;;;;;10.45;8.93;;;;;;;23.95;70.70;94444.63;5090205;28;20652;-46
2023/06/14 07:40:50;;;;;;;10.18;7.82;;;;;;;24.15;69.90;94479.06;5089737;28;20189;-46
2023/06/14 07:43:19;;;;;;;13.43;10.05;;;;;;;24.16;70.65;94469.41;5089624;28;20255;-45
2023/06/14 07:45:45;;;;;;;13.57;8.82;;;;;;;24.20;69.99;94471.34;5089935;28;20193;-47
2023/06/14 07:48:12;;;;;;;10.52;9.48;;;;;;;24.37;70.25;94476.72;5089981;28;20189;-48
2023/06/14 07:50:39;;;;;;;11.05;9.05;;;;;;;24.53;69.85;94483.06;5089770;28;20182;-45
2023/06/14 07:53:06;;;;;;;12.07;9.70;;;;;;;24.69;69.40;94482.34;5089948;28;20557;-45
2023/06/14 07:55:36;;;;;;;16.50;10.27;;;;;;;24.88;68.43;94488.22;5089260;28;20650;-49
2023/06/14 07:58:03;;;;;;;10.95;9.77;;;;;;;25.22;66.65;94491.00;5089723;28;20637;-47
2023/06/14 08:00:31;;;;;;;9.95;8.98;;;;;;;25.19;66.25;94483.63;5089675;28;20193;-52
2023/06/14 08:02:59;;;;;;;11.25;8.73;;;;;;;25.25;66.79;94486.09;5089630;28;20216;-44
2023/06/14 08:05:26;;;;;;;10.05;8.15;;;;;;;25.31;66.97;94492.22;5089572;28;20302;-47
2023/06/14 08:07:53;;;;;;;11.38;9.32;;;;;;;25.55;65.42;94486.88;5089490;28;20662;-47
2023/06/14 08:10:21;;;;;;;12.10;8.00;;;;;;;25.67;64.83;94482.38;5089633;28;20197;-47
2023/06/14 08:12:48;;;;;;;9.65;8.55;;;;;;;25.91;64.33;94502.19;5089673;28;20259;-46
2023/06/14 08:15:15;;;;;;;9.15;8.25;;;;;;;25.92;64.25;94501.16;5089529;28;20216;-48
2023/06/14 08:17:45;;;;;;;10.68;9.65;;;;;;;25.98;64.60;94508.06;5088988;28;20299;-46
2023/06/14 08:20:13;;;;;;;10.60;8.77;;;;;;;25.97;65.11;94492.56;5089356;28;20202;-45
2023/06/14 08:22:42;;;;;;;10.25;8.43;;;;;;;26.15;63.69;94507.28;5089100;28;20190;-47
2023/06/14 08:25:09;;;;;;;10.25;7.68;;;;;;;26.06;63.62;94501.63;5089506;28;20656;-47
2023/06/14 08:27:36;;;;;;;11.13;8.20;;;;;;;26.01;62.95;94510.22;5089054;28;20274;-45
2023/06/14 08:30:04;;;;;;;9.68;7.80;;;;;;;26.13;63.18;94509.34;5089325;28;20273;-46
2023/06/14 08:32:30;;;;;;;10.85;8.45;;;;;;;26.20;62.67;94507.34;5089313;28;20186;-46
2023/06/14 08:34:58;;;;;;;11.10;8.40;;;;;;;26.11;61.90;94500.91;5088872;28;20190;-47
2023/06/14 08:37:26;;;;;;;9.40;7.90;;;;;;;26.22;61.01;94510.53;5089169;28;20193;-47
2023/06/14 08:39:53;;;;;;;9.43;8.45;;;;;;;26.26;61.58;94515.06;5089229;28;20284;-47
2023/06/14 08:42:22;;;;;;;14.90;8.45;;;;;;;26.19;62.59;94511.78;5089009;28;20205;-44
2023/06/14 08:44:48;;;;;;;9.48;8.40;;;;;;;26.17;62.64;94511.25;5089056;28;20588;-45
2023/06/14 08:47:18;;;;;;;8.93;8.00;;;;;;;26.05;62.76;94473.06;5089135;28;20182;-45
2023/06/14 08:49:48;;;;;;;14.15;10.27;;;;;;;26.29;62.02;94505.91;5089002;28;20194;-47
2023/06/14 08:52:20;;;;;;;11.02;9.52;;;;;;;26.20;61.08;94500.28;5089470;28;20223;-46
2023/06/14 08:54:48;;;;;;;12.57;10.25;;;;;;;26.03;62.46;94496.84;5089570;28;20641;-45
2023/06/14 08:57:16;;;;;;;10.10;9.07;;;;;;;26.06;63.26;94499.00;5092810;28;20189;-46
2023/06/14 08:59:49;;;;;;;10.30;8.10;;;;;;;26.42;62.02;94496.91;5092573;28;20197;-46
2023/06/14 09:02:19;;;;;;;9.32;8.25;;;;;;;26.75;60.58;94494.25;5092905;28;20208;-44
2023/06/14 09:04:46;;;;;;;10.80;9.45;;;;;;;26.86;59.38;94494.41;5092591;28;20300;-46
2023/06/14 09:07:13;;;;;;;13.30;10.02;;;;;;;26.64;59.14;94478.59;5093121;28;20212;-47
2023/06/14 09:09:42;;;;;;;10.40;9.32;;;;;;;26.59;60.61;94495.06;5092477;28;20216;-46
2023/06/14 09:12:12;;;;;;;10.82;9.80;;;;;;;26.57;60.58;94493.75;5092677;28;20240;-46
2023/06/14 09:14:41;;;;;;;11.10;10.00;;;;;;;26.30;60.39;94477.88;5092703;28;20194;-45
2023/06/14 09:17:08;;;;;;;11.10;9.98;;;;;;;26.31;60.22;94476.84;5092458;28;20222;-45
2023/06/14 09:19:36;;;;;;;9.25;8.27;;;;;;;26.43;60.59;94485.41;5092392;28;20868;-45
2023/06/14 09:22:04;;;;;;;10.32;9.30;;;;;;;26.63;59.76;94479.66;5092262;28;20201;-47
2023/06/14 09:24:31;;;;;;;13.98;9.02;;;;;;;26.56;59.55;94484.28;5092219;28;20235;-47
2023/06/14 09:26:59;;;;;;;11.20;9.75;;;;;;;26.56;59.94;94489.53;5092741;28;20197;-46
2023/06/14 09:29:27;;;;;;;10.25;9.25;;;;;;;26.61;59.73;94485.16;5092093;28;20197;-46
2023/06/14 09:31:54;;;;;;;9.50;8.57;;;;;;;26.20;58.94;94431.31;5074543;28;20281;-46
2023/06/14 09:34:23;;;;;;;9.15;8.25;;;;;;;26.42;59.54;94466.22;5091974;28;20190;-46
2023/06/14 09:36:51;;;;;;;9.32;8.38;;;;;;;26.46;59.37;94483.09;5092388;28;20217;-45
2023/06/14 09:39:19;;;;;;;10.07;9.18;;;;;;;26.28;59.72;94492.00;5092201;28;20238;-48
2023/06/14 09:41:45;;;;;;;10.18;9.20;;;;;;;26.20;59.94;94486.38;5092502;28;20242;-47
2023/06/14 09:44:14;;;;;;;9.95;9.05;;;;;;;26.01;60.99;94484.00;5091979;28;20232;-46
2023/06/14 09:46:40;;;;;;;10.25;9.15;;;;;;;25.61;61.22;94413.41;5092659;28;20276;-47
2023/06/14 09:49:08;;;;;;;12.13;8.68;;;;;;;26.09;60.87;94477.56;5092144;28;20193;-46
2023/06/14 09:51:41;;;;;;;10.18;9.18;;;;;;;26.11;61.22;94474.69;5091819;28;20575;-45
2023/06/14 09:54:09;;;;;;;8.65;7.78;;;;;;;26.35;60.51;94470.88;5092370;28;20197;-45
2023/06/14 09:56:38;;;;;;;9.32;8.05;;;;;;;26.71;60.44;94460.88;5091648;28;20198;-46
2023/06/14 09:59:07;;;;;;;9.98;8.82;;;;;;;26.98;57.75;94464.34;5091488;28;20676;-50
2023/06/14 10:01:41;;;;;;;10.93;8.82;;;;;;;26.81;59.29;94449.69;5091680;28;20197;-46
2023/06/14 10:04:08;;;;;;;10.32;9.25;;;;;;;27.08;58.67;94461.06;5091647;28;20212;-47
2023/06/14 10:06:39;;;;;;;9.95;8.93;;;;;;;26.90;58.55;94442.97;5090312;28;20622;-44
2023/06/14 10:09:09;;;;;;;10.43;9.18;;;;;;;26.91;59.19;94460.34;5092077;28;20268;-46
2023/06/14 10:11:36;;;;;;;12.02;9.23;;;;;;;26.73;58.90;94454.34;5091875;28;20239;-46
2023/06/14 10:14:06;;;;;;;10.60;9.48;;;;;;;26.41;59.67;94454.16;5091481;28;20254;-47
2023/06/14 10:16:38;;;;;;;12.73;8.98;;;;;;;26.24;60.18;94450.78;5091122;28;20324;-46
2023/06/14 10:19:17;;;;;;;11.02;9.77;;;;;;;26.12;60.47;94426.47;5091688;28;20212;-47
2023/06/14 10:21:56;;;;;;;11.00;10.00;;;;;;;26.02;60.06;94440.25;5091347;28;20554;-47
2023/06/14 10:24:30;;;;;;;9.48;8.50;;;;;;;25.94;61.19;94438.03;5090948;28;20205;-45
2023/06/14 10:26:59;;;;;;;11.98;9.23;;;;;;;25.95;61.51;94440.41;5091262;28;20182;-48
2023/06/14 10:29:25;;;;;;;9.60;8.70;;;;;;;25.90;61.27;94426.44;5091343;28;20197;-47
2023/06/14 10:31:59;;;;;;;10.32;9.10;;;;;;;26.11;61.22;94440.63;5091357;28;20194;-47
2023/06/14 10:34:26;;;;;;;11.43;9.50;;;;;;;26.20;61.56;94437.34;5090999;28;20197;-46
2023/06/14 10:37:03;;;;;;;9.90;8.82;;;;;;;26.26;62.63;94433.78;5091059;28;20194;-47
2023/06/14 10:39:30;;;;;;;12.65;9.38;;;;;;;26.38;61.90;94430.25;5091297;28;20234;-46
2023/06/14 10:41:58;;;;;;;15.57;10.90;;;;;;;26.27;61.06;94426.72;5091217;28;20181;-46
2023/06/14 10:44:51;;;;;;;11.95;10.73;;;;;;;26.34;60.48;94432.59;5090826;28;20221;-46
2023/06/14 10:47:37;;;;;;;11.70;10.00;;;;;;;26.17;61.70;94422.13;5090663;28;20229;-46
2023/06/14 10:50:06;;;;;;;13.25;9.77;;;;;;;26.28;60.30;94430.91;5089960;28;20189;-47
2023/06/14 10:52:35;;;;;;;10.32;9.27;;;;;;;26.45;59.79;94421.19;5090949;28;20198;-47
2023/06/14 10:55:11;;;;;;;11.32;10.02;;;;;;;26.42;59.80;94400.66;5090690;28;20197;-45
2023/06/14 10:57:39;;;;;;;13.63;9.27;;;;;;;26.62;58.97;94407.25;5090735;28;20272;-45
2023/06/14 11:00:13;;;;;;;13.02;9.02;;;;;;;26.60;59.38;94404.88;5090326;28;20196;-44
2023/06/14 11:02:59;;;;;;;11.50;8.50;;;;;;;26.55;58.79;94402.16;5090710;28;20272;-47
2023/06/14 11:05:27;;;;;;;11.23;8.68;;;;;;;26.46;58.41;94393.13;5090416;28;20722;-45
2023/06/14 11:08:20;;;;;;;12.45;9.57;;;;;;;26.56;58.64;94400.38;5090184;28;20620;-46
2023/06/14 11:10:47;;;;;;;9.95;7.90;;;;;;;26.28;58.92;94410.72;5090389;28;20193;-47
2023/06/14 11:13:14;;;;;;;10.00;8.75;;;;;;;26.16;59.63;94404.78;5090177;28;20186;-45
2023/06/14 11:15:46;;;;;;;9.85;8.85;;;;;;;25.65;59.99;94333.31;5090358;28;20197;-43
2023/06/14 11:18:16;;;;;;;9.65;8.65;;;;;;;26.07;60.27;94390.50;5089769;28;20251;-46
2023/06/14 11:20:43;;;;;;;10.75;8.95;;;;;;;26.18;60.44;94394.88;5090165;28;20190;-45
2023/06/14 11:23:10;;;;;;;11.60;9.35;;;;;;;26.27;59.19;94382.13;5090335;28;20189;-47
2023/06/14 11:25:36;;;;;;;9.65;8.55;;;;;;;26.30;59.35;94391.34;5090002;28;20704;-44
2023/06/14 11:28:03;;;;;;;11.00;9.27;;;;;;;25.98;59.68;94392.75;5089973;28;20201;-48
2023/06/14 11:30:30;;;;;;;9.32;8.52;;;;;;;25.93;59.55;94392.69;5089859;28;20197;-43